sensor_id;sensor_type;location;lat;lon;timestamp;P1;durP1;ratioP1;P2;durP2;ratioP2
35971;SDS011;22052;0.000;0.000;2023-03-16T00:00:36;13.52;;;4.53;;
35971;SDS011;22052;0.000;0.000;2023-03-16T00:03:02;12.48;;;4.25;;
35971;SDS011;22052;0.000;0.000;2023-03-16T00:05:28;14.48;;;3.97;;
35971;SDS011;22052;0.000;0.000;2023-03-16T00:07:54;11.38;;;3.92;;
35971;SDS011;22052;0.000;0.000;2023-03-16T00:10:20;11.50;;;3.85;;
35971;SDS011;22052;0.000;0.000;2023-03-16T00:12:51;14.93;;;4.28;;
35971;SDS011;22052;0.000;0.000;2023-03-16T00:15:18;17.90;;;4.70;;
35971;SDS011;22052;0.000;0.000;2023-03-16T00:17:44;16.60;;;4.30;;
35971;SDS011;22052;0.000;0.000;2023-03-16T00:20:14;12.27;;;4.43;;
35971;SDS011;22052;0.000;0.000;2023-03-16T00:22:41;11.93;;;4.32;;
35971;SDS011;22052;0.000;0.000;2023-03-16T00:25:08;11.68;;;3.80;;
35971;SDS011;22052;0.000;0.000;2023-03-16T00:27:34;11.77;;;3.92;;
35971;SDS011;22052;0.000;0.000;2023-03-16T00:30:00;14.80;;;4.22;;
35971;SDS011;22052;0.000;0.000;2023-03-16T00:32:28;10.43;;;3.50;;
35971;SDS011;22052;0.000;0.000;2023-03-16T00:34:56;11.30;;;4.22;;
35971;SDS011;22052;0.000;0.000;2023-03-16T00:37:23;14.23;;;4.85;;
35971;SDS011;22052;0.000;0.000;2023-03-16T00:39:50;12.68;;;3.60;;
35971;SDS011;22052;0.000;0.000;2023-03-16T00:42:20;12.70;;;4.60;;
35971;SDS011;22052;0.000;0.000;2023-03-16T00:44:51;10.18;;;3.70;;
35971;SDS011;22052;0.000;0.000;2023-03-16T00:47:21;9.18;;;3.80;;
35971;SDS011;22052;0.000;0.000;2023-03-16T00:49:47;10.95;;;3.80;;
35971;SDS011;22052;0.000;0.000;2023-03-16T00:52:14;10.70;;;3.70;;
35971;SDS011;22052;0.000;0.000;2023-03-16T00:54:44;9.73;;;4.18;;
35971;SDS011;22052;0.000;0.000;2023-03-16T00:57:11;11.73;;;3.85;;
35971;SDS011;22052;0.000;0.000;2023-03-16T00:59:37;11.73;;;4.00;;
35971;SDS011;22052;0.000;0.000;2023-03-16T01:02:04;11.60;;;4.13;;
35971;SDS011;22052;0.000;0.000;2023-03-16T01:04:31;12.27;;;3.40;;
35971;SDS011;22052;0.000;0.000;2023-03-16T01:07:00;12.98;;;4.38;;
35971;SDS011;22052;0.000;0.000;2023-03-16T01:09:26;9.55;;;3.65;;
35971;SDS011;22052;0.000;0.000;2023-03-16T01:11:52;12.52;;;4.10;;
35971;SDS011;22052;0.000;0.000;2023-03-16T01:14:19;10.43;;;3.60;;
35971;SDS011;22052;0.000;0.000;2023-03-16T01:16:46;12.95;;;4.03;;
35971;SDS011;22052;0.000;0.000;2023-03-16T01:19:12;9.60;;;3.45;;
35971;SDS011;22052;0.000;0.000;2023-03-16T01:21:39;10.25;;;3.78;;
35971;SDS011;22052;0.000;0.000;2023-03-16T01:24:06;9.80;;;3.72;;
35971;SDS011;22052;0.000;0.000;2023-03-16T01:26:32;7.05;;;3.00;;
35971;SDS011;22052;0.000;0.000;2023-03-16T01:28:59;10.93;;;3.55;;
35971;SDS011;22052;0.000;0.000;2023-03-16T01:31:26;13.38;;;3.72;;
35971;SDS011;22052;0.000;0.000;2023-03-16T01:33:53;10.65;;;3.45;;
35971;SDS011;22052;0.000;0.000;2023-03-16T01:36:20;11.50;;;3.72;;
35971;SDS011;22052;0.000;0.000;2023-03-16T01:38:46;9.13;;;3.47;;
35971;SDS011;22052;0.000;0.000;2023-03-16T01:41:13;11.18;;;3.80;;
35971;SDS011;22052;0.000;0.000;2023-03-16T01:43:39;10.27;;;3.85;;
35971;SDS011;22052;0.000;0.000;2023-03-16T01:46:09;10.52;;;3.60;;
35971;SDS011;22052;0.000;0.000;2023-03-16T01:49:12;10.60;;;3.47;;
35971;SDS011;22052;0.000;0.000;2023-03-16T01:51:34;11.93;;;3.72;;
35971;SDS011;22052;0.000;0.000;2023-03-16T01:54:02;9.30;;;3.40;;
35971;SDS011;22052;0.000;0.000;2023-03-16T01:56:33;9.68;;;3.60;;
35971;SDS011;22052;0.000;0.000;2023-03-16T01:59:01;8.32;;;3.45;;
35971;SDS011;22052;0.000;0.000;2023-03-16T02:01:29;10.10;;;3.45;;
35971;SDS011;22052;0.000;0.000;2023-03-16T02:03:56;10.93;;;3.67;;
35971;SDS011;22052;0.000;0.000;2023-03-16T02:06:25;7.95;;;2.97;;
35971;SDS011;22052;0.000;0.000;2023-03-16T02:08:52;8.07;;;3.58;;
35971;SDS011;22052;0.000;0.000;2023-03-16T02:11:19;9.35;;;3.20;;
35971;SDS011;22052;0.000;0.000;2023-03-16T02:13:46;8.50;;;3.47;;
35971;SDS011;22052;0.000;0.000;2023-03-16T02:16:13;8.48;;;3.55;;
35971;SDS011;22052;0.000;0.000;2023-03-16T02:18:46;6.40;;;3.00;;
35971;SDS011;22052;0.000;0.000;2023-03-16T02:21:14;11.00;;;3.70;;
35971;SDS011;22052;0.000;0.000;2023-03-16T02:23:43;6.82;;;3.13;;
35971;SDS011;22052;0.000;0.000;2023-03-16T02:26:20;9.18;;;3.40;;
35971;SDS011;22052;0.000;0.000;2023-03-16T02:29:10;8.15;;;3.70;;
35971;SDS011;22052;0.000;0.000;2023-03-16T02:31:36;6.55;;;3.08;;
35971;SDS011;22052;0.000;0.000;2023-03-16T02:34:03;9.70;;;3.20;;
35971;SDS011;22052;0.000;0.000;2023-03-16T02:36:29;8.82;;;3.33;;
35971;SDS011;22052;0.000;0.000;2023-03-16T02:38:57;8.27;;;3.53;;
35971;SDS011;22052;0.000;0.000;2023-03-16T02:41:23;8.40;;;3.38;;
35971;SDS011;22052;0.000;0.000;2023-03-16T02:43:51;8.85;;;3.15;;
35971;SDS011;22052;0.000;0.000;2023-03-16T02:46:18;8.00;;;3.42;;
35971;SDS011;22052;0.000;0.000;2023-03-16T02:51:12;9.32;;;3.58;;
35971;SDS011;22052;0.000;0.000;2023-03-16T02:53:38;7.47;;;3.28;;
35971;SDS011;22052;0.000;0.000;2023-03-16T02:56:05;6.95;;;3.10;;
35971;SDS011;22052;0.000;0.000;2023-03-16T02:58:31;7.93;;;3.10;;
35971;SDS011;22052;0.000;0.000;2023-03-16T03:00:57;7.10;;;3.35;;
35971;SDS011;22052;0.000;0.000;2023-03-16T03:03:23;6.05;;;2.80;;
35971;SDS011;22052;0.000;0.000;2023-03-16T03:05:50;7.15;;;3.35;;
35971;SDS011;22052;0.000;0.000;2023-03-16T03:08:16;7.35;;;3.22;;
35971;SDS011;22052;0.000;0.000;2023-03-16T03:10:44;9.35;;;3.35;;
35971;SDS011;22052;0.000;0.000;2023-03-16T03:13:10;8.07;;;3.25;;
35971;SDS011;22052;0.000;0.000;2023-03-16T03:15:37;7.97;;;3.05;;
35971;SDS011;22052;0.000;0.000;2023-03-16T03:18:03;8.93;;;3.08;;
35971;SDS011;22052;0.000;0.000;2023-03-16T03:20:29;10.35;;;3.60;;
35971;SDS011;22052;0.000;0.000;2023-03-16T03:22:55;7.57;;;2.90;;
35971;SDS011;22052;0.000;0.000;2023-03-16T03:25:22;7.70;;;3.25;;
35971;SDS011;22052;0.000;0.000;2023-03-16T03:27:49;9.77;;;3.25;;
35971;SDS011;22052;0.000;0.000;2023-03-16T03:30:16;8.23;;;2.90;;
35971;SDS011;22052;0.000;0.000;2023-03-16T03:32:43;8.63;;;3.20;;
35971;SDS011;22052;0.000;0.000;2023-03-16T03:35:10;8.55;;;3.28;;
35971;SDS011;22052;0.000;0.000;2023-03-16T03:37:37;7.75;;;3.25;;
35971;SDS011;22052;0.000;0.000;2023-03-16T03:40:04;9.40;;;3.47;;
35971;SDS011;22052;0.000;0.000;2023-03-16T03:42:31;5.63;;;2.85;;
35971;SDS011;22052;0.000;0.000;2023-03-16T03:44:57;9.25;;;3.20;;
35971;SDS011;22052;0.000;0.000;2023-03-16T03:47:23;5.40;;;2.83;;
35971;SDS011;22052;0.000;0.000;2023-03-16T03:49:49;6.28;;;2.97;;
35971;SDS011;22052;0.000;0.000;2023-03-16T03:52:15;6.72;;;3.17;;
35971;SDS011;22052;0.000;0.000;2023-03-16T03:54:42;7.70;;;3.30;;
35971;SDS011;22052;0.000;0.000;2023-03-16T03:57:08;5.30;;;2.80;;
35971;SDS011;22052;0.000;0.000;2023-03-16T03:59:35;10.07;;;3.17;;
35971;SDS011;22052;0.000;0.000;2023-03-16T04:02:07;7.93;;;3.08;;
35971;SDS011;22052;0.000;0.000;2023-03-16T04:04:33;8.63;;;2.70;;
35971;SDS011;22052;0.000;0.000;2023-03-16T04:06:59;7.43;;;2.92;;
35971;SDS011;22052;0.000;0.000;2023-03-16T04:09:25;8.63;;;2.90;;
35971;SDS011;22052;0.000;0.000;2023-03-16T04:11:51;8.90;;;3.35;;
35971;SDS011;22052;0.000;0.000;2023-03-16T04:14:17;7.97;;;3.10;;
35971;SDS011;22052;0.000;0.000;2023-03-16T04:16:43;8.60;;;2.97;;
35971;SDS011;22052;0.000;0.000;2023-03-16T04:19:10;6.50;;;2.80;;
35971;SDS011;22052;0.000;0.000;2023-03-16T04:21:36;8.48;;;3.40;;
35971;SDS011;22052;0.000;0.000;2023-03-16T04:24:02;6.10;;;2.47;;
35971;SDS011;22052;0.000;0.000;2023-03-16T04:26:29;5.55;;;2.60;;
35971;SDS011;22052;0.000;0.000;2023-03-16T04:28:56;8.70;;;3.25;;
35971;SDS011;22052;0.000;0.000;2023-03-16T04:31:22;8.15;;;2.75;;
35971;SDS011;22052;0.000;0.000;2023-03-16T04:33:49;6.00;;;2.78;;
35971;SDS011;22052;0.000;0.000;2023-03-16T04:36:18;7.47;;;2.80;;
35971;SDS011;22052;0.000;0.000;2023-03-16T04:38:48;7.90;;;2.85;;
35971;SDS011;22052;0.000;0.000;2023-03-16T04:41:14;7.15;;;2.90;;
35971;SDS011;22052;0.000;0.000;2023-03-16T04:43:40;6.10;;;3.10;;
35971;SDS011;22052;0.000;0.000;2023-03-16T04:46:07;6.05;;;2.80;;
35971;SDS011;22052;0.000;0.000;2023-03-16T04:48:34;6.10;;;2.75;;
35971;SDS011;22052;0.000;0.000;2023-03-16T04:51:01;5.70;;;3.17;;
35971;SDS011;22052;0.000;0.000;2023-03-16T04:53:30;6.25;;;2.83;;
35971;SDS011;22052;0.000;0.000;2023-03-16T04:55:57;8.50;;;2.88;;
35971;SDS011;22052;0.000;0.000;2023-03-16T04:58:23;6.10;;;2.85;;
35971;SDS011;22052;0.000;0.000;2023-03-16T05:03:32;6.70;;;2.60;;
35971;SDS011;22052;0.000;0.000;2023-03-16T05:05:58;7.47;;;2.90;;
35971;SDS011;22052;0.000;0.000;2023-03-16T05:08:25;5.85;;;2.60;;
35971;SDS011;22052;0.000;0.000;2023-03-16T05:10:55;7.50;;;2.78;;
35971;SDS011;22052;0.000;0.000;2023-03-16T05:13:21;8.63;;;2.70;;
35971;SDS011;22052;0.000;0.000;2023-03-16T05:15:47;7.97;;;2.67;;
35971;SDS011;22052;0.000;0.000;2023-03-16T05:18:13;6.05;;;2.80;;
35971;SDS011;22052;0.000;0.000;2023-03-16T05:20:39;6.20;;;2.65;;
35971;SDS011;22052;0.000;0.000;2023-03-16T05:23:06;6.70;;;2.40;;
35971;SDS011;22052;0.000;0.000;2023-03-16T05:25:32;8.68;;;3.15;;
35971;SDS011;22052;0.000;0.000;2023-03-16T05:27:58;5.43;;;2.25;;
35971;SDS011;22052;0.000;0.000;2023-03-16T05:30:25;5.55;;;2.45;;
35971;SDS011;22052;0.000;0.000;2023-03-16T05:32:51;8.52;;;2.88;;
35971;SDS011;22052;0.000;0.000;2023-03-16T05:35:18;6.20;;;2.42;;
35971;SDS011;22052;0.000;0.000;2023-03-16T05:37:45;4.45;;;2.30;;
35971;SDS011;22052;0.000;0.000;2023-03-16T05:40:12;8.25;;;2.70;;
35971;SDS011;22052;0.000;0.000;2023-03-16T05:42:44;6.22;;;2.67;;
35971;SDS011;22052;0.000;0.000;2023-03-16T05:45:11;7.38;;;2.80;;
35971;SDS011;22052;0.000;0.000;2023-03-16T05:47:38;5.40;;;2.50;;
35971;SDS011;22052;0.000;0.000;2023-03-16T05:50:05;8.95;;;2.78;;
35971;SDS011;22052;0.000;0.000;2023-03-16T05:52:33;6.20;;;2.45;;
35971;SDS011;22052;0.000;0.000;2023-03-16T05:54:59;6.93;;;2.70;;
35971;SDS011;22052;0.000;0.000;2023-03-16T05:57:25;8.60;;;3.03;;
35971;SDS011;22052;0.000;0.000;2023-03-16T05:59:51;8.23;;;2.97;;
35971;SDS011;22052;0.000;0.000;2023-03-16T06:02:17;7.15;;;2.83;;
35971;SDS011;22052;0.000;0.000;2023-03-16T06:04:44;7.07;;;2.35;;
35971;SDS011;22052;0.000;0.000;2023-03-16T06:07:10;6.43;;;2.75;;
35971;SDS011;22052;0.000;0.000;2023-03-16T06:09:36;9.70;;;3.13;;
35971;SDS011;22052;0.000;0.000;2023-03-16T06:12:02;9.60;;;2.50;;
35971;SDS011;22052;0.000;0.000;2023-03-16T06:14:29;6.05;;;3.05;;
35971;SDS011;22052;0.000;0.000;2023-03-16T06:16:55;7.95;;;2.65;;
35971;SDS011;22052;0.000;0.000;2023-03-16T06:19:21;12.48;;;3.10;;
35971;SDS011;22052;0.000;0.000;2023-03-16T06:21:47;8.10;;;2.78;;
35971;SDS011;22052;0.000;0.000;2023-03-16T06:24:13;10.48;;;3.10;;
35971;SDS011;22052;0.000;0.000;2023-03-16T06:26:39;8.73;;;2.65;;
35971;SDS011;22052;0.000;0.000;2023-03-16T06:29:06;7.13;;;3.13;;
35971;SDS011;22052;0.000;0.000;2023-03-16T06:31:32;8.15;;;2.97;;
35971;SDS011;22052;0.000;0.000;2023-03-16T06:33:59;9.40;;;3.15;;
35971;SDS011;22052;0.000;0.000;2023-03-16T06:36:25;7.30;;;3.10;;
35971;SDS011;22052;0.000;0.000;2023-03-16T06:38:51;8.43;;;3.22;;
35971;SDS011;22052;0.000;0.000;2023-03-16T06:41:18;7.75;;;2.97;;
35971;SDS011;22052;0.000;0.000;2023-03-16T06:43:45;9.70;;;2.60;;
35971;SDS011;22052;0.000;0.000;2023-03-16T06:46:11;13.18;;;3.25;;
35971;SDS011;22052;0.000;0.000;2023-03-16T06:48:40;9.73;;;2.67;;
35971;SDS011;22052;0.000;0.000;2023-03-16T06:51:06;9.73;;;2.63;;
35971;SDS011;22052;0.000;0.000;2023-03-16T06:53:33;8.75;;;2.65;;
35971;SDS011;22052;0.000;0.000;2023-03-16T06:55:59;8.55;;;2.80;;
35971;SDS011;22052;0.000;0.000;2023-03-16T06:58:26;14.27;;;3.75;;
35971;SDS011;22052;0.000;0.000;2023-03-16T07:00:52;8.55;;;2.58;;
35971;SDS011;22052;0.000;0.000;2023-03-16T07:03:18;10.52;;;3.00;;
35971;SDS011;22052;0.000;0.000;2023-03-16T07:05:45;12.27;;;3.13;;
35971;SDS011;22052;0.000;0.000;2023-03-16T07:08:12;14.43;;;3.30;;
35971;SDS011;22052;0.000;0.000;2023-03-16T07:10:39;11.70;;;3.10;;
35971;SDS011;22052;0.000;0.000;2023-03-16T07:13:06;14.27;;;3.08;;
35971;SDS011;22052;0.000;0.000;2023-03-16T07:15:32;11.27;;;3.35;;
35971;SDS011;22052;0.000;0.000;2023-03-16T07:17:59;11.30;;;2.67;;
35971;SDS011;22052;0.000;0.000;2023-03-16T07:20:25;12.20;;;2.88;;
35971;SDS011;22052;0.000;0.000;2023-03-16T07:22:55;13.50;;;2.58;;
35971;SDS011;22052;0.000;0.000;2023-03-16T07:25:21;6.60;;;2.30;;
35971;SDS011;22052;0.000;0.000;2023-03-16T07:27:48;10.35;;;2.75;;
35971;SDS011;22052;0.000;0.000;2023-03-16T07:30:14;10.23;;;2.50;;
35971;SDS011;22052;0.000;0.000;2023-03-16T07:32:41;6.78;;;2.50;;
35971;SDS011;22052;0.000;0.000;2023-03-16T07:35:08;6.78;;;2.55;;
35971;SDS011;22052;0.000;0.000;2023-03-16T07:37:34;8.88;;;2.63;;
35971;SDS011;22052;0.000;0.000;2023-03-16T07:40:01;8.57;;;3.00;;
35971;SDS011;22052;0.000;0.000;2023-03-16T07:42:27;13.05;;;2.55;;
35971;SDS011;22052;0.000;0.000;2023-03-16T07:44:54;9.23;;;2.40;;
35971;SDS011;22052;0.000;0.000;2023-03-16T07:47:20;9.57;;;2.78;;
35971;SDS011;22052;0.000;0.000;2023-03-16T07:49:46;6.75;;;2.33;;
35971;SDS011;22052;0.000;0.000;2023-03-16T07:52:13;8.80;;;2.30;;
35971;SDS011;22052;0.000;0.000;2023-03-16T07:54:41;7.07;;;2.50;;
35971;SDS011;22052;0.000;0.000;2023-03-16T07:59:49;8.20;;;2.55;;
35971;SDS011;22052;0.000;0.000;2023-03-16T08:02:16;8.07;;;2.30;;
35971;SDS011;22052;0.000;0.000;2023-03-16T08:04:43;8.40;;;2.35;;
35971;SDS011;22052;0.000;0.000;2023-03-16T08:07:10;8.32;;;2.53;;
35971;SDS011;22052;0.000;0.000;2023-03-16T08:09:37;9.65;;;2.28;;
35971;SDS011;22052;0.000;0.000;2023-03-16T08:12:04;6.88;;;2.30;;
35971;SDS011;22052;0.000;0.000;2023-03-16T08:14:31;7.10;;;2.50;;
35971;SDS011;22052;0.000;0.000;2023-03-16T08:17:01;8.43;;;2.45;;
35971;SDS011;22052;0.000;0.000;2023-03-16T08:19:47;8.48;;;2.58;;
35971;SDS011;22052;0.000;0.000;2023-03-16T08:22:17;7.25;;;2.47;;
35971;SDS011;22052;0.000;0.000;2023-03-16T08:24:43;9.13;;;2.25;;
35971;SDS011;22052;0.000;0.000;2023-03-16T08:27:09;10.32;;;2.20;;
35971;SDS011;22052;0.000;0.000;2023-03-16T08:29:37;5.45;;;1.80;;
35971;SDS011;22052;0.000;0.000;2023-03-16T08:32:04;8.45;;;2.38;;
35971;SDS011;22052;0.000;0.000;2023-03-16T08:34:31;8.70;;;2.55;;
35971;SDS011;22052;0.000;0.000;2023-03-16T08:36:58;8.50;;;2.40;;
35971;SDS011;22052;0.000;0.000;2023-03-16T08:39:29;7.20;;;2.42;;
35971;SDS011;22052;0.000;0.000;2023-03-16T08:41:55;6.65;;;2.17;;
35971;SDS011;22052;0.000;0.000;2023-03-16T08:44:27;6.85;;;2.33;;
35971;SDS011;22052;0.000;0.000;2023-03-16T08:46:54;7.03;;;2.20;;
35971;SDS011;22052;0.000;0.000;2023-03-16T08:49:20;9.77;;;2.40;;
35971;SDS011;22052;0.000;0.000;2023-03-16T08:51:48;8.55;;;2.38;;
35971;SDS011;22052;0.000;0.000;2023-03-16T08:54:14;7.65;;;2.47;;
35971;SDS011;22052;0.000;0.000;2023-03-16T08:56:41;10.32;;;2.15;;
35971;SDS011;22052;0.000;0.000;2023-03-16T08:59:08;8.70;;;2.08;;
35971;SDS011;22052;0.000;0.000;2023-03-16T09:01:36;6.85;;;2.22;;
35971;SDS011;22052;0.000;0.000;2023-03-16T09:04:08;8.55;;;2.42;;
35971;SDS011;22052;0.000;0.000;2023-03-16T09:06:35;8.23;;;1.95;;
35971;SDS011;22052;0.000;0.000;2023-03-16T09:09:03;7.43;;;2.33;;
35971;SDS011;22052;0.000;0.000;2023-03-16T09:11:30;9.77;;;2.10;;
35971;SDS011;22052;0.000;0.000;2023-03-16T09:13:58;16.23;;;3.35;;
35971;SDS011;22052;0.000;0.000;2023-03-16T09:16:24;7.38;;;2.13;;
35971;SDS011;22052;0.000;0.000;2023-03-16T09:18:52;7.97;;;2.50;;
35971;SDS011;22052;0.000;0.000;2023-03-16T09:21:29;8.57;;;2.20;;
35971;SDS011;22052;0.000;0.000;2023-03-16T09:26:50;6.82;;;2.03;;
35971;SDS011;22052;0.000;0.000;2023-03-16T09:29:18;10.23;;;2.42;;
35971;SDS011;22052;0.000;0.000;2023-03-16T09:31:48;7.35;;;2.17;;
35971;SDS011;22052;0.000;0.000;2023-03-16T09:34:15;10.10;;;2.13;;
35971;SDS011;22052;0.000;0.000;2023-03-16T09:36:41;5.88;;;1.90;;
35971;SDS011;22052;0.000;0.000;2023-03-16T09:39:07;8.95;;;2.10;;
35971;SDS011;22052;0.000;0.000;2023-03-16T09:44:30;6.78;;;2.10;;
35971;SDS011;22052;0.000;0.000;2023-03-16T09:46:57;7.47;;;2.03;;
35971;SDS011;22052;0.000;0.000;2023-03-16T09:49:26;6.90;;;2.03;;
35971;SDS011;22052;0.000;0.000;2023-03-16T09:51:55;7.07;;;1.95;;
35971;SDS011;22052;0.000;0.000;2023-03-16T09:54:41;8.23;;;2.10;;
35971;SDS011;22052;0.000;0.000;2023-03-16T09:59:53;5.10;;;1.80;;
35971;SDS011;22052;0.000;0.000;2023-03-16T10:05:18;7.53;;;2.20;;
35971;SDS011;22052;0.000;0.000;2023-03-16T10:08:06;6.47;;;2.05;;
35971;SDS011;22052;0.000;0.000;2023-03-16T10:29:41;9.10;;;1.80;;
35971;SDS011;22052;0.000;0.000;2023-03-16T10:32:23;11.38;;;2.30;;
35971;SDS011;22052;0.000;0.000;2023-03-16T10:35:10;6.00;;;1.77;;
35971;SDS011;22052;0.000;0.000;2023-03-16T10:37:52;7.47;;;1.80;;
35971;SDS011;22052;0.000;0.000;2023-03-16T10:40:22;8.93;;;1.63;;
35971;SDS011;22052;0.000;0.000;2023-03-16T10:42:49;7.43;;;1.98;;
35971;SDS011;22052;0.000;0.000;2023-03-16T10:45:31;7.45;;;1.80;;
35971;SDS011;22052;0.000;0.000;2023-03-16T10:48:10;9.18;;;1.92;;
35971;SDS011;22052;0.000;0.000;2023-03-16T10:50:38;5.60;;;1.70;;
35971;SDS011;22052;0.000;0.000;2023-03-16T10:53:09;4.60;;;1.83;;
35971;SDS011;22052;0.000;0.000;2023-03-16T10:55:42;5.07;;;1.92;;
35971;SDS011;22052;0.000;0.000;2023-03-16T10:58:10;6.75;;;1.63;;
35971;SDS011;22052;0.000;0.000;2023-03-16T11:00:47;8.07;;;1.95;;
35971;SDS011;22052;0.000;0.000;2023-03-16T11:03:27;9.20;;;2.15;;
35971;SDS011;22052;0.000;0.000;2023-03-16T11:06:01;6.28;;;1.80;;
35971;SDS011;22052;0.000;0.000;2023-03-16T11:08:34;7.97;;;1.90;;
35971;SDS011;22052;0.000;0.000;2023-03-16T11:11:09;9.20;;;1.90;;
35971;SDS011;22052;0.000;0.000;2023-03-16T11:13:42;5.80;;;1.60;;
35971;SDS011;22052;0.000;0.000;2023-03-16T11:16:20;10.82;;;2.00;;
35971;SDS011;22052;0.000;0.000;2023-03-16T11:19:02;8.07;;;2.05;;
35971;SDS011;22052;0.000;0.000;2023-03-16T11:22:05;6.70;;;2.30;;
35971;SDS011;22052;0.000;0.000;2023-03-16T11:30:28;8.02;;;1.70;;
35971;SDS011;22052;0.000;0.000;2023-03-16T11:32:56;6.60;;;1.95;;
35971;SDS011;22052;0.000;0.000;2023-03-16T11:38:12;5.78;;;1.70;;
35971;SDS011;22052;0.000;0.000;2023-03-16T11:40:44;10.25;;;2.13;;
35971;SDS011;22052;0.000;0.000;2023-03-16T11:45:50;5.07;;;1.75;;
35971;SDS011;22052;0.000;0.000;2023-03-16T12:10:47;4.80;;;1.95;;
35971;SDS011;22052;0.000;0.000;2023-03-16T12:16:43;6.28;;;1.70;;
35971;SDS011;22052;0.000;0.000;2023-03-16T12:18:54;8.35;;;1.77;;
35971;SDS011;22052;0.000;0.000;2023-03-16T12:23:56;4.85;;;1.55;;
35971;SDS011;22052;0.000;0.000;2023-03-16T12:26:25;5.65;;;2.00;;
35971;SDS011;22052;0.000;0.000;2023-03-16T12:29:26;6.90;;;1.77;;
35971;SDS011;22052;0.000;0.000;2023-03-16T12:34:40;10.13;;;2.38;;
35971;SDS011;22052;0.000;0.000;2023-03-16T12:45:12;3.10;;;1.50;;
35971;SDS011;22052;0.000;0.000;2023-03-16T12:47:45;7.63;;;2.03;;
35971;SDS011;22052;0.000;0.000;2023-03-16T12:50:16;6.10;;;1.80;;
35971;SDS011;22052;0.000;0.000;2023-03-16T12:52:47;7.50;;;1.92;;
35971;SDS011;22052;0.000;0.000;2023-03-16T12:55:23;8.32;;;1.92;;
35971;SDS011;22052;0.000;0.000;2023-03-16T12:57:57;9.10;;;2.00;;
35971;SDS011;22052;0.000;0.000;2023-03-16T13:00:31;9.65;;;2.25;;
35971;SDS011;22052;0.000;0.000;2023-03-16T13:02:59;16.38;;;2.30;;
35971;SDS011;22052;0.000;0.000;2023-03-16T13:05:33;18.27;;;2.47;;
35971;SDS011;22052;0.000;0.000;2023-03-16T13:08:14;12.38;;;2.17;;
35971;SDS011;22052;0.000;0.000;2023-03-16T13:10:41;13.45;;;2.53;;
35971;SDS011;22052;0.000;0.000;2023-03-16T13:13:10;9.18;;;2.05;;
35971;SDS011;22052;0.000;0.000;2023-03-16T13:15:38;10.95;;;2.28;;
35971;SDS011;22052;0.000;0.000;2023-03-16T13:20:52;10.63;;;2.10;;
35971;SDS011;22052;0.000;0.000;2023-03-16T13:23:21;12.40;;;2.00;;
35971;SDS011;22052;0.000;0.000;2023-03-16T13:26:11;13.18;;;2.20;;
35971;SDS011;22052;0.000;0.000;2023-03-16T13:28:43;9.80;;;2.17;;
35971;SDS011;22052;0.000;0.000;2023-03-16T13:31:24;11.80;;;2.20;;
35971;SDS011;22052;0.000;0.000;2023-03-16T13:33:55;6.82;;;1.80;;
35971;SDS011;22052;0.000;0.000;2023-03-16T13:36:25;9.85;;;2.05;;
35971;SDS011;22052;0.000;0.000;2023-03-16T13:38:56;10.98;;;2.33;;
35971;SDS011;22052;0.000;0.000;2023-03-16T13:41:22;9.18;;;2.42;;
35971;SDS011;22052;0.000;0.000;2023-03-16T13:43:50;7.80;;;1.88;;
35971;SDS011;22052;0.000;0.000;2023-03-16T13:46:18;8.60;;;2.00;;
35971;SDS011;22052;0.000;0.000;2023-03-16T13:48:46;8.60;;;2.13;;
35971;SDS011;22052;0.000;0.000;2023-03-16T13:51:17;9.02;;;1.92;;
35971;SDS011;22052;0.000;0.000;2023-03-16T13:53:45;6.32;;;1.65;;
35971;SDS011;22052;0.000;0.000;2023-03-16T13:56:13;10.15;;;1.90;;
35971;SDS011;22052;0.000;0.000;2023-03-16T13:58:42;8.05;;;1.92;;
35971;SDS011;22052;0.000;0.000;2023-03-16T14:01:12;10.50;;;1.88;;
35971;SDS011;22052;0.000;0.000;2023-03-16T14:03:42;12.50;;;2.10;;
35971;SDS011;22052;0.000;0.000;2023-03-16T14:06:23;8.82;;;1.88;;
35971;SDS011;22052;0.000;0.000;2023-03-16T14:08:51;8.68;;;2.25;;
35971;SDS011;22052;0.000;0.000;2023-03-16T14:11:27;14.07;;;2.10;;
35971;SDS011;22052;0.000;0.000;2023-03-16T14:16:48;11.07;;;2.53;;
35971;SDS011;22052;0.000;0.000;2023-03-16T14:19:16;15.15;;;2.97;;
35971;SDS011;22052;0.000;0.000;2023-03-16T14:21:48;19.15;;;2.30;;
35971;SDS011;22052;0.000;0.000;2023-03-16T14:24:36;7.78;;;2.08;;
35971;SDS011;22052;0.000;0.000;2023-03-16T14:30:18;11.32;;;2.65;;
35971;SDS011;22052;0.000;0.000;2023-03-16T14:33:04;8.10;;;2.42;;
35971;SDS011;22052;0.000;0.000;2023-03-16T14:35:40;13.40;;;2.13;;
35971;SDS011;22052;0.000;0.000;2023-03-16T14:38:28;12.95;;;2.47;;
35971;SDS011;22052;0.000;0.000;2023-03-16T14:41:25;10.15;;;3.28;;
35971;SDS011;22052;0.000;0.000;2023-03-16T14:43:58;15.18;;;3.05;;
35971;SDS011;22052;0.000;0.000;2023-03-16T14:46:50;11.45;;;2.65;;
35971;SDS011;22052;0.000;0.000;2023-03-16T14:49:28;12.45;;;2.70;;
35971;SDS011;22052;0.000;0.000;2023-03-16T14:52:01;11.20;;;2.80;;
35971;SDS011;22052;0.000;0.000;2023-03-16T14:54:29;9.40;;;2.35;;
35971;SDS011;22052;0.000;0.000;2023-03-16T14:57:00;14.02;;;2.47;;
35971;SDS011;22052;0.000;0.000;2023-03-16T14:59:28;12.38;;;2.80;;
35971;SDS011;22052;0.000;0.000;2023-03-16T15:01:55;12.15;;;2.95;;
35971;SDS011;22052;0.000;0.000;2023-03-16T15:04:29;12.40;;;2.50;;
35971;SDS011;22052;0.000;0.000;2023-03-16T15:07:22;15.85;;;2.60;;
35971;SDS011;22052;0.000;0.000;2023-03-16T15:09:49;15.68;;;2.78;;
35971;SDS011;22052;0.000;0.000;2023-03-16T15:12:18;13.48;;;2.10;;
35971;SDS011;22052;0.000;0.000;2023-03-16T15:27:35;7.53;;;2.38;;
35971;SDS011;22052;0.000;0.000;2023-03-16T15:30:04;17.98;;;2.33;;
35971;SDS011;22052;0.000;0.000;2023-03-16T15:32:32;13.07;;;2.55;;
35971;SDS011;22052;0.000;0.000;2023-03-16T15:34:58;12.70;;;2.28;;
35971;SDS011;22052;0.000;0.000;2023-03-16T15:37:25;11.48;;;2.40;;
35971;SDS011;22052;0.000;0.000;2023-03-16T15:39:54;8.25;;;2.25;;
35971;SDS011;22052;0.000;0.000;2023-03-16T15:42:21;7.90;;;2.00;;
35971;SDS011;22052;0.000;0.000;2023-03-16T15:44:47;11.68;;;2.33;;
35971;SDS011;22052;0.000;0.000;2023-03-16T15:47:14;10.90;;;2.90;;
35971;SDS011;22052;0.000;0.000;2023-03-16T15:49:40;11.02;;;2.85;;
35971;SDS011;22052;0.000;0.000;2023-03-16T15:52:09;9.32;;;2.45;;
35971;SDS011;22052;0.000;0.000;2023-03-16T15:54:44;12.57;;;2.92;;
35971;SDS011;22052;0.000;0.000;2023-03-16T15:57:10;13.52;;;2.83;;
35971;SDS011;22052;0.000;0.000;2023-03-16T15:59:37;13.93;;;2.50;;
35971;SDS011;22052;0.000;0.000;2023-03-16T16:02:09;11.23;;;2.65;;
35971;SDS011;22052;0.000;0.000;2023-03-16T16:04:47;15.00;;;2.83;;
35971;SDS011;22052;0.000;0.000;2023-03-16T16:07:13;9.48;;;2.55;;
35971;SDS011;22052;0.000;0.000;2023-03-16T16:09:40;7.78;;;2.20;;
35971;SDS011;22052;0.000;0.000;2023-03-16T16:12:09;13.65;;;2.72;;
35971;SDS011;22052;0.000;0.000;2023-03-16T16:14:36;8.40;;;2.28;;
35971;SDS011;22052;0.000;0.000;2023-03-16T16:17:04;9.27;;;2.20;;
35971;SDS011;22052;0.000;0.000;2023-03-16T16:19:30;9.88;;;2.28;;
35971;SDS011;22052;0.000;0.000;2023-03-16T16:21:58;11.90;;;2.10;;
35971;SDS011;22052;0.000;0.000;2023-03-16T16:24:24;9.20;;;2.17;;
35971;SDS011;22052;0.000;0.000;2023-03-16T16:26:50;10.82;;;2.45;;
35971;SDS011;22052;0.000;0.000;2023-03-16T16:29:18;9.75;;;2.25;;
35971;SDS011;22052;0.000;0.000;2023-03-16T16:31:46;11.98;;;2.53;;
35971;SDS011;22052;0.000;0.000;2023-03-16T16:34:13;10.18;;;2.33;;
35971;SDS011;22052;0.000;0.000;2023-03-16T16:36:41;11.30;;;2.38;;
35971;SDS011;22052;0.000;0.000;2023-03-16T16:39:07;10.10;;;2.20;;
35971;SDS011;22052;0.000;0.000;2023-03-16T16:41:33;11.52;;;2.58;;
35971;SDS011;22052;0.000;0.000;2023-03-16T16:44:00;13.65;;;2.55;;
35971;SDS011;22052;0.000;0.000;2023-03-16T16:46:35;8.32;;;2.05;;
35971;SDS011;22052;0.000;0.000;2023-03-16T16:49:25;11.52;;;2.25;;
35971;SDS011;22052;0.000;0.000;2023-03-16T16:51:51;10.70;;;2.55;;
35971;SDS011;22052;0.000;0.000;2023-03-16T16:54:18;12.02;;;2.97;;
35971;SDS011;22052;0.000;0.000;2023-03-16T16:56:46;10.50;;;2.67;;
35971;SDS011;22052;0.000;0.000;2023-03-16T16:59:17;12.07;;;2.42;;